sensor_id;sensor_type;location;lat;lon;timestamp;P1;durP1;ratioP1;P2;durP2;ratioP2
53931;SDS011;39844;52.496;13.482;2023-05-10T00:01:23;3.57;;;2.83;;
53931;SDS011;39844;52.496;13.482;2023-05-10T00:03:49;4.77;;;3.20;;
53931;SDS011;39844;52.496;13.482;2023-05-10T00:06:14;3.87;;;3.23;;
53931;SDS011;39844;52.496;13.482;2023-05-10T00:08:40;3.17;;;2.90;;
53931;SDS011;39844;52.496;13.482;2023-05-10T00:11:05;3.03;;;2.73;;
53931;SDS011;39844;52.496;13.482;2023-05-10T00:13:30;3.33;;;3.07;;
53931;SDS011;39844;52.496;13.482;2023-05-10T00:15:56;2.93;;;2.73;;
53931;SDS011;39844;52.496;13.482;2023-05-10T00:18:21;2.90;;;2.70;;
53931;SDS011;39844;52.496;13.482;2023-05-10T00:20:46;3.87;;;3.10;;
53931;SDS011;39844;52.496;13.482;2023-05-10T00:23:12;7.37;;;3.20;;
53931;SDS011;39844;52.496;13.482;2023-05-10T00:25:37;7.90;;;3.20;;
53931;SDS011;39844;52.496;13.482;2023-05-10T00:28:02;3.93;;;3.00;;
53931;SDS011;39844;52.496;13.482;2023-05-10T00:30:28;3.43;;;3.10;;
53931;SDS011;39844;52.496;13.482;2023-05-10T00:32:53;5.83;;;3.00;;
53931;SDS011;39844;52.496;13.482;2023-05-10T00:35:18;5.50;;;3.20;;
53931;SDS011;39844;52.496;13.482;2023-05-10T00:37:44;3.87;;;3.03;;
53931;SDS011;39844;52.496;13.482;2023-05-10T00:40:09;3.47;;;3.03;;
53931;SDS011;39844;52.496;13.482;2023-05-10T00:42:35;4.90;;;3.30;;
53931;SDS011;39844;52.496;13.482;2023-05-10T00:45:00;3.57;;;3.07;;
53931;SDS011;39844;52.496;13.482;2023-05-10T00:47:25;3.50;;;3.20;;
53931;SDS011;39844;52.496;13.482;2023-05-10T00:49:51;6.07;;;2.93;;
53931;SDS011;39844;52.496;13.482;2023-05-10T00:52:16;4.27;;;3.53;;
53931;SDS011;39844;52.496;13.482;2023-05-10T00:54:42;3.77;;;3.33;;
53931;SDS011;39844;52.496;13.482;2023-05-10T00:57:07;7.33;;;3.27;;
53931;SDS011;39844;52.496;13.482;2023-05-10T00:59:32;4.07;;;3.43;;
53931;SDS011;39844;52.496;13.482;2023-05-10T01:01:58;3.50;;;3.20;;
53931;SDS011;39844;52.496;13.482;2023-05-10T01:04:23;3.43;;;3.13;;
53931;SDS011;39844;52.496;13.482;2023-05-10T01:06:49;4.83;;;3.63;;
53931;SDS011;39844;52.496;13.482;2023-05-10T01:09:14;7.87;;;3.00;;
53931;SDS011;39844;52.496;13.482;2023-05-10T01:11:39;3.30;;;3.00;;
53931;SDS011;39844;52.496;13.482;2023-05-10T01:14:05;4.63;;;3.30;;
53931;SDS011;39844;52.496;13.482;2023-05-10T01:16:32;3.87;;;3.20;;
53931;SDS011;39844;52.496;13.482;2023-05-10T01:19:02;3.83;;;3.00;;
53931;SDS011;39844;52.496;13.482;2023-05-10T01:21:53;3.73;;;3.00;;
53931;SDS011;39844;52.496;13.482;2023-05-10T01:30:05;3.67;;;3.27;;
53931;SDS011;39844;52.496;13.482;2023-05-10T01:35:42;3.53;;;3.13;;
53931;SDS011;39844;52.496;13.482;2023-05-10T01:38:22;3.07;;;2.80;;
53931;SDS011;39844;52.496;13.482;2023-05-10T01:46:53;3.43;;;2.90;;
53931;SDS011;39844;52.496;13.482;2023-05-10T01:49:29;3.37;;;3.10;;
53931;SDS011;39844;52.496;13.482;2023-05-10T01:51:59;4.70;;;3.17;;
53931;SDS011;39844;52.496;13.482;2023-05-10T01:54:31;3.30;;;3.00;;
53931;SDS011;39844;52.496;13.482;2023-05-10T01:57:07;2.77;;;2.57;;
53931;SDS011;39844;52.496;13.482;2023-05-10T01:59:34;5.73;;;3.23;;
53931;SDS011;39844;52.496;13.482;2023-05-10T02:02:01;4.30;;;2.90;;
53931;SDS011;39844;52.496;13.482;2023-05-10T02:04:29;8.10;;;3.50;;
53931;SDS011;39844;52.496;13.482;2023-05-10T02:06:56;5.83;;;3.07;;
53931;SDS011;39844;52.496;13.482;2023-05-10T02:09:22;2.90;;;2.70;;
53931;SDS011;39844;52.496;13.482;2023-05-10T02:11:50;4.60;;;3.20;;
53931;SDS011;39844;52.496;13.482;2023-05-10T02:14:17;3.80;;;3.40;;
53931;SDS011;39844;52.496;13.482;2023-05-10T02:16:43;3.57;;;3.20;;
53931;SDS011;39844;52.496;13.482;2023-05-10T02:19:09;5.70;;;3.10;;
53931;SDS011;39844;52.496;13.482;2023-05-10T02:21:37;3.43;;;3.07;;
53931;SDS011;39844;52.496;13.482;2023-05-10T02:24:05;5.50;;;3.67;;
53931;SDS011;39844;52.496;13.482;2023-05-10T02:26:31;3.47;;;2.90;;
53931;SDS011;39844;52.496;13.482;2023-05-10T02:28:58;4.10;;;3.20;;
53931;SDS011;39844;52.496;13.482;2023-05-10T02:31:26;4.47;;;3.10;;
53931;SDS011;39844;52.496;13.482;2023-05-10T02:33:51;4.67;;;3.23;;
53931;SDS011;39844;52.496;13.482;2023-05-10T02:36:19;5.33;;;3.53;;
53931;SDS011;39844;52.496;13.482;2023-05-10T02:38:46;3.10;;;2.90;;
53931;SDS011;39844;52.496;13.482;2023-05-10T02:41:12;2.93;;;2.73;;
53931;SDS011;39844;52.496;13.482;2023-05-10T02:43:38;4.50;;;2.83;;
53931;SDS011;39844;52.496;13.482;2023-05-10T02:46:05;5.43;;;2.90;;
53931;SDS011;39844;52.496;13.482;2023-05-10T02:48:31;4.03;;;3.00;;
53931;SDS011;39844;52.496;13.482;2023-05-10T02:50:58;3.00;;;2.80;;
53931;SDS011;39844;52.496;13.482;2023-05-10T02:53:34;3.07;;;2.87;;
53931;SDS011;39844;52.496;13.482;2023-05-10T02:56:13;2.60;;;2.40;;
53931;SDS011;39844;52.496;13.482;2023-05-10T02:58:44;3.03;;;2.77;;
53931;SDS011;39844;52.496;13.482;2023-05-10T03:01:10;2.83;;;2.60;;
53931;SDS011;39844;52.496;13.482;2023-05-10T03:03:35;3.60;;;3.10;;
53931;SDS011;39844;52.496;13.482;2023-05-10T03:06:00;3.43;;;2.70;;
53931;SDS011;39844;52.496;13.482;2023-05-10T03:08:26;7.07;;;3.13;;
53931;SDS011;39844;52.496;13.482;2023-05-10T03:10:57;8.40;;;3.20;;
53931;SDS011;39844;52.496;13.482;2023-05-10T03:16:12;4.00;;;2.53;;
53931;SDS011;39844;52.496;13.482;2023-05-10T03:18:58;2.70;;;2.50;;
53931;SDS011;39844;52.496;13.482;2023-05-10T03:21:31;5.13;;;2.73;;
53931;SDS011;39844;52.496;13.482;2023-05-10T03:24:07;3.03;;;2.57;;
53931;SDS011;39844;52.496;13.482;2023-05-10T03:26:33;3.60;;;2.83;;
53931;SDS011;39844;52.496;13.482;2023-05-10T03:28:59;3.27;;;2.63;;
53931;SDS011;39844;52.496;13.482;2023-05-10T03:31:26;4.53;;;3.47;;
53931;SDS011;39844;52.496;13.482;2023-05-10T03:33:52;7.30;;;2.90;;
53931;SDS011;39844;52.496;13.482;2023-05-10T03:36:18;5.27;;;2.63;;
53931;SDS011;39844;52.496;13.482;2023-05-10T03:38:44;3.63;;;2.80;;
53931;SDS011;39844;52.496;13.482;2023-05-10T03:41:09;4.23;;;2.70;;
53931;SDS011;39844;52.496;13.482;2023-05-10T03:43:35;3.23;;;2.90;;
53931;SDS011;39844;52.496;13.482;2023-05-10T03:46:03;3.10;;;2.63;;
53931;SDS011;39844;52.496;13.482;2023-05-10T03:48:29;3.27;;;2.20;;
53931;SDS011;39844;52.496;13.482;2023-05-10T03:50:55;7.37;;;2.93;;
53931;SDS011;39844;52.496;13.482;2023-05-10T03:53:20;3.23;;;2.50;;
53931;SDS011;39844;52.496;13.482;2023-05-10T03:55:46;4.27;;;2.93;;
53931;SDS011;39844;52.496;13.482;2023-05-10T03:58:11;3.00;;;2.80;;
53931;SDS011;39844;52.496;13.482;2023-05-10T04:00:36;4.63;;;2.97;;
53931;SDS011;39844;52.496;13.482;2023-05-10T04:03:02;5.13;;;3.27;;
53931;SDS011;39844;52.496;13.482;2023-05-10T04:05:27;2.90;;;2.60;;
53931;SDS011;39844;52.496;13.482;2023-05-10T04:07:52;3.20;;;2.90;;
53931;SDS011;39844;52.496;13.482;2023-05-10T04:10:18;4.00;;;2.60;;
53931;SDS011;39844;52.496;13.482;2023-05-10T04:12:43;2.93;;;2.40;;
53931;SDS011;39844;52.496;13.482;2023-05-10T04:15:09;3.40;;;2.80;;
53931;SDS011;39844;52.496;13.482;2023-05-10T04:17:34;4.10;;;2.70;;
53931;SDS011;39844;52.496;13.482;2023-05-10T04:19:59;3.00;;;2.50;;
53931;SDS011;39844;52.496;13.482;2023-05-10T04:22:25;3.40;;;2.87;;
53931;SDS011;39844;52.496;13.482;2023-05-10T04:24:50;5.07;;;2.77;;
53931;SDS011;39844;52.496;13.482;2023-05-10T04:27:15;6.40;;;3.03;;
53931;SDS011;39844;52.496;13.482;2023-05-10T04:29:41;3.47;;;2.67;;
53931;SDS011;39844;52.496;13.482;2023-05-10T04:32:06;3.50;;;2.93;;
53931;SDS011;39844;52.496;13.482;2023-05-10T04:34:31;4.80;;;2.60;;
53931;SDS011;39844;52.496;13.482;2023-05-10T04:36:59;2.80;;;2.60;;
53931;SDS011;39844;52.496;13.482;2023-05-10T04:39:25;2.90;;;2.50;;
53931;SDS011;39844;52.496;13.482;2023-05-10T04:41:50;2.37;;;2.17;;
53931;SDS011;39844;52.496;13.482;2023-05-10T04:44:15;5.57;;;2.50;;
53931;SDS011;39844;52.496;13.482;2023-05-10T04:46:41;2.93;;;2.10;;
53931;SDS011;39844;52.496;13.482;2023-05-10T04:49:06;4.00;;;2.70;;
53931;SDS011;39844;52.496;13.482;2023-05-10T04:51:31;2.73;;;2.47;;
53931;SDS011;39844;52.496;13.482;2023-05-10T04:53:56;6.13;;;2.67;;
53931;SDS011;39844;52.496;13.482;2023-05-10T04:56:22;3.47;;;2.53;;
53931;SDS011;39844;52.496;13.482;2023-05-10T04:58:47;2.63;;;2.43;;
53931;SDS011;39844;52.496;13.482;2023-05-10T05:01:12;4.33;;;2.23;;
53931;SDS011;39844;52.496;13.482;2023-05-10T05:03:38;3.10;;;2.67;;
53931;SDS011;39844;52.496;13.482;2023-05-10T05:06:03;7.70;;;2.50;;
53931;SDS011;39844;52.496;13.482;2023-05-10T05:08:29;3.00;;;2.23;;
53931;SDS011;39844;52.496;13.482;2023-05-10T05:10:54;3.30;;;2.67;;
53931;SDS011;39844;52.496;13.482;2023-05-10T05:13:19;2.80;;;2.20;;
53931;SDS011;39844;52.496;13.482;2023-05-10T05:15:45;1.97;;;1.87;;
53931;SDS011;39844;52.496;13.482;2023-05-10T05:18:10;4.47;;;2.23;;
53931;SDS011;39844;52.496;13.482;2023-05-10T05:20:35;2.83;;;2.50;;
53931;SDS011;39844;52.496;13.482;2023-05-10T05:23:01;2.17;;;2.00;;
53931;SDS011;39844;52.496;13.482;2023-05-10T05:25:26;3.10;;;2.40;;
53931;SDS011;39844;52.496;13.482;2023-05-10T05:27:51;2.57;;;2.10;;
53931;SDS011;39844;52.496;13.482;2023-05-10T05:30:17;4.53;;;2.07;;
53931;SDS011;39844;52.496;13.482;2023-05-10T05:32:42;2.83;;;2.50;;
53931;SDS011;39844;52.496;13.482;2023-05-10T05:35:07;2.83;;;2.27;;
53931;SDS011;39844;52.496;13.482;2023-05-10T05:37:33;2.87;;;2.20;;
53931;SDS011;39844;52.496;13.482;2023-05-10T05:39:58;2.47;;;2.27;;
53931;SDS011;39844;52.496;13.482;2023-05-10T05:42:24;2.53;;;2.23;;
53931;SDS011;39844;52.496;13.482;2023-05-10T05:44:49;3.03;;;2.00;;
53931;SDS011;39844;52.496;13.482;2023-05-10T05:47:14;2.10;;;2.00;;
53931;SDS011;39844;52.496;13.482;2023-05-10T05:49:39;2.23;;;2.00;;
53931;SDS011;39844;52.496;13.482;2023-05-10T05:52:05;3.73;;;1.70;;
53931;SDS011;39844;52.496;13.482;2023-05-10T05:54:30;5.23;;;1.93;;
53931;SDS011;39844;52.496;13.482;2023-05-10T05:56:56;2.53;;;1.87;;
53931;SDS011;39844;52.496;13.482;2023-05-10T05:59:24;5.43;;;2.10;;
53931;SDS011;39844;52.496;13.482;2023-05-10T06:01:50;2.93;;;2.03;;
53931;SDS011;39844;52.496;13.482;2023-05-10T06:04:16;2.37;;;2.07;;
53931;SDS011;39844;52.496;13.482;2023-05-10T06:06:41;1.77;;;1.67;;
53931;SDS011;39844;52.496;13.482;2023-05-10T06:09:07;2.00;;;1.90;;
53931;SDS011;39844;52.496;13.482;2023-05-10T06:11:32;2.13;;;1.93;;
53931;SDS011;39844;52.496;13.482;2023-05-10T06:13:58;3.63;;;2.20;;
53931;SDS011;39844;52.496;13.482;2023-05-10T06:16:23;2.00;;;1.90;;
53931;SDS011;39844;52.496;13.482;2023-05-10T06:18:49;1.80;;;1.70;;
53931;SDS011;39844;52.496;13.482;2023-05-10T06:21:14;2.03;;;1.80;;
53931;SDS011;39844;52.496;13.482;2023-05-10T06:23:39;2.13;;;1.83;;
53931;SDS011;39844;52.496;13.482;2023-05-10T06:26:04;2.00;;;1.90;;
53931;SDS011;39844;52.496;13.482;2023-05-10T06:28:30;2.00;;;1.70;;
53931;SDS011;39844;52.496;13.482;2023-05-10T06:30:55;1.70;;;1.60;;
53931;SDS011;39844;52.496;13.482;2023-05-10T06:33:20;4.60;;;2.00;;
53931;SDS011;39844;52.496;13.482;2023-05-10T06:35:46;2.90;;;2.10;;
53931;SDS011;39844;52.496;13.482;2023-05-10T06:38:11;1.60;;;1.50;;
53931;SDS011;39844;52.496;13.482;2023-05-10T06:40:36;3.17;;;1.90;;
53931;SDS011;39844;52.496;13.482;2023-05-10T06:43:01;2.63;;;1.70;;
53931;SDS011;39844;52.496;13.482;2023-05-10T06:45:27;3.40;;;1.80;;
53931;SDS011;39844;52.496;13.482;2023-05-10T06:47:52;1.87;;;1.70;;
53931;SDS011;39844;52.496;13.482;2023-05-10T06:50:17;3.30;;;1.87;;
53931;SDS011;39844;52.496;13.482;2023-05-10T06:52:43;2.10;;;2.00;;
53931;SDS011;39844;52.496;13.482;2023-05-10T06:55:08;1.93;;;1.83;;
53931;SDS011;39844;52.496;13.482;2023-05-10T06:57:34;1.63;;;1.53;;
53931;SDS011;39844;52.496;13.482;2023-05-10T06:59:59;3.10;;;1.77;;
53931;SDS011;39844;52.496;13.482;2023-05-10T07:02:24;2.10;;;1.90;;
53931;SDS011;39844;52.496;13.482;2023-05-10T07:04:50;2.10;;;1.90;;
53931;SDS011;39844;52.496;13.482;2023-05-10T07:07:17;3.13;;;1.63;;
53931;SDS011;39844;52.496;13.482;2023-05-10T07:09:43;5.67;;;1.83;;
53931;SDS011;39844;52.496;13.482;2023-05-10T07:12:08;1.73;;;1.53;;
53931;SDS011;39844;52.496;13.482;2023-05-10T07:14:33;1.90;;;1.80;;
53931;SDS011;39844;52.496;13.482;2023-05-10T07:16:59;1.77;;;1.67;;
53931;SDS011;39844;52.496;13.482;2023-05-10T07:19:24;1.83;;;1.67;;
53931;SDS011;39844;52.496;13.482;2023-05-10T07:21:49;1.80;;;1.70;;
53931;SDS011;39844;52.496;13.482;2023-05-10T07:24:15;1.80;;;1.50;;
53931;SDS011;39844;52.496;13.482;2023-05-10T07:26:40;6.43;;;1.70;;
53931;SDS011;39844;52.496;13.482;2023-05-10T07:29:05;1.60;;;1.50;;
53931;SDS011;39844;52.496;13.482;2023-05-10T07:31:31;2.20;;;1.60;;
53931;SDS011;39844;52.496;13.482;2023-05-10T07:33:56;2.20;;;1.70;;
53931;SDS011;39844;52.496;13.482;2023-05-10T07:36:21;3.97;;;2.00;;
53931;SDS011;39844;52.496;13.482;2023-05-10T07:38:46;2.10;;;1.90;;
53931;SDS011;39844;52.496;13.482;2023-05-10T07:41:12;1.63;;;1.43;;
53931;SDS011;39844;52.496;13.482;2023-05-10T07:43:37;1.93;;;1.57;;
53931;SDS011;39844;52.496;13.482;2023-05-10T07:46:03;1.57;;;1.47;;
53931;SDS011;39844;52.496;13.482;2023-05-10T07:48:28;2.23;;;1.60;;
53931;SDS011;39844;52.496;13.482;2023-05-10T07:50:53;2.60;;;1.67;;
53931;SDS011;39844;52.496;13.482;2023-05-10T07:53:19;2.83;;;2.13;;
53931;SDS011;39844;52.496;13.482;2023-05-10T07:55:44;1.80;;;1.70;;
53931;SDS011;39844;52.496;13.482;2023-05-10T07:58:15;1.73;;;1.63;;
53931;SDS011;39844;52.496;13.482;2023-05-10T08:00:40;2.13;;;1.63;;
53931;SDS011;39844;52.496;13.482;2023-05-10T08:03:06;1.73;;;1.63;;
53931;SDS011;39844;52.496;13.482;2023-05-10T08:05:31;2.13;;;1.93;;
53931;SDS011;39844;52.496;13.482;2023-05-10T08:07:56;4.37;;;1.70;;
53931;SDS011;39844;52.496;13.482;2023-05-10T08:10:21;2.57;;;2.03;;
53931;SDS011;39844;52.496;13.482;2023-05-10T08:12:47;1.50;;;1.40;;
53931;SDS011;39844;52.496;13.482;2023-05-10T08:15:12;2.00;;;1.80;;
53931;SDS011;39844;52.496;13.482;2023-05-10T08:17:37;4.93;;;1.70;;
53931;SDS011;39844;52.496;13.482;2023-05-10T08:20:03;2.07;;;1.87;;
53931;SDS011;39844;52.496;13.482;2023-05-10T08:22:28;1.83;;;1.73;;
53931;SDS011;39844;52.496;13.482;2023-05-10T08:24:54;1.70;;;1.60;;
53931;SDS011;39844;52.496;13.482;2023-05-10T08:27:19;1.80;;;1.70;;
53931;SDS011;39844;52.496;13.482;2023-05-10T08:29:44;2.50;;;1.97;;
53931;SDS011;39844;52.496;13.482;2023-05-10T08:32:09;4.37;;;1.90;;
53931;SDS011;39844;52.496;13.482;2023-05-10T08:34:35;1.93;;;1.73;;
53931;SDS011;39844;52.496;13.482;2023-05-10T08:37:00;2.63;;;1.90;;
53931;SDS011;39844;52.496;13.482;2023-05-10T08:39:25;3.73;;;1.47;;
53931;SDS011;39844;52.496;13.482;2023-05-10T08:41:51;1.90;;;1.80;;
53931;SDS011;39844;52.496;13.482;2023-05-10T08:44:23;1.57;;;1.57;;
53931;SDS011;39844;52.496;13.482;2023-05-10T08:46:48;2.13;;;1.90;;
53931;SDS011;39844;52.496;13.482;2023-05-10T08:49:18;3.87;;;1.93;;
53931;SDS011;39844;52.496;13.482;2023-05-10T08:51:47;1.70;;;1.60;;
53931;SDS011;39844;52.496;13.482;2023-05-10T08:54:14;2.00;;;1.77;;
53931;SDS011;39844;52.496;13.482;2023-05-10T08:56:40;6.63;;;1.90;;
53931;SDS011;39844;52.496;13.482;2023-05-10T08:59:06;2.00;;;1.80;;
53931;SDS011;39844;52.496;13.482;2023-05-10T09:01:31;1.80;;;1.70;;
53931;SDS011;39844;52.496;13.482;2023-05-10T09:04:00;3.77;;;1.90;;
53931;SDS011;39844;52.496;13.482;2023-05-10T09:06:25;5.30;;;1.93;;
53931;SDS011;39844;52.496;13.482;2023-05-10T09:08:51;3.20;;;2.13;;
53931;SDS011;39844;52.496;13.482;2023-05-10T09:11:17;1.90;;;1.80;;
53931;SDS011;39844;52.496;13.482;2023-05-10T09:13:42;1.57;;;1.43;;
53931;SDS011;39844;52.496;13.482;2023-05-10T09:16:08;1.80;;;1.70;;
53931;SDS011;39844;52.496;13.482;2023-05-10T09:18:34;5.43;;;1.87;;
53931;SDS011;39844;52.496;13.482;2023-05-10T09:20:59;1.80;;;1.70;;
53931;SDS011;39844;52.496;13.482;2023-05-10T09:23:24;1.70;;;1.60;;
53931;SDS011;39844;52.496;13.482;2023-05-10T09:26:01;3.77;;;1.60;;
53931;SDS011;39844;52.496;13.482;2023-05-10T09:29:12;2.20;;;2.00;;
53931;SDS011;39844;52.496;13.482;2023-05-10T09:31:21;3.83;;;1.70;;
53931;SDS011;39844;52.496;13.482;2023-05-10T09:33:48;1.93;;;1.80;;
53931;SDS011;39844;52.496;13.482;2023-05-10T09:36:14;2.17;;;1.90;;
53931;SDS011;39844;52.496;13.482;2023-05-10T09:38:47;1.67;;;1.53;;
53931;SDS011;39844;52.496;13.482;2023-05-10T09:41:17;1.80;;;1.70;;
53931;SDS011;39844;52.496;13.482;2023-05-10T09:43:42;1.97;;;1.67;;
53931;SDS011;39844;52.496;13.482;2023-05-10T09:46:08;2.13;;;2.03;;
53931;SDS011;39844;52.496;13.482;2023-05-10T09:48:34;1.50;;;1.40;;
53931;SDS011;39844;52.496;13.482;2023-05-10T09:50:59;1.83;;;1.53;;
53931;SDS011;39844;52.496;13.482;2023-05-10T09:53:24;3.20;;;2.00;;
53931;SDS011;39844;52.496;13.482;2023-05-10T09:55:50;1.70;;;1.60;;
53931;SDS011;39844;52.496;13.482;2023-05-10T09:58:15;1.63;;;1.50;;
53931;SDS011;39844;52.496;13.482;2023-05-10T10:00:41;1.90;;;1.47;;
53931;SDS011;39844;52.496;13.482;2023-05-10T10:03:14;1.67;;;1.43;;
53931;SDS011;39844;52.496;13.482;2023-05-10T10:05:44;1.83;;;1.70;;
53931;SDS011;39844;52.496;13.482;2023-05-10T10:08:11;1.60;;;1.60;;
53931;SDS011;39844;52.496;13.482;2023-05-10T10:10:37;3.95;;;1.80;;
53931;SDS011;39844;52.496;13.482;2023-05-10T10:13:02;1.70;;;1.60;;
53931;SDS011;39844;52.496;13.482;2023-05-10T10:15:28;1.70;;;1.60;;
53931;SDS011;39844;52.496;13.482;2023-05-10T10:17:53;3.17;;;1.83;;
53931;SDS011;39844;52.496;13.482;2023-05-10T10:20:20;1.98;;;1.88;;
53931;SDS011;39844;52.496;13.482;2023-05-10T10:22:46;1.88;;;1.77;;
53931;SDS011;39844;52.496;13.482;2023-05-10T10:25:13;1.70;;;1.60;;
53931;SDS011;39844;52.496;13.482;2023-05-10T10:35:26;2.00;;;1.48;;
53931;SDS011;39844;52.496;13.482;2023-05-10T10:37:54;2.05;;;1.85;;
53931;SDS011;39844;52.496;13.482;2023-05-10T10:40:26;2.35;;;1.60;;
53931;SDS011;39844;52.496;13.482;2023-05-10T10:42:56;4.57;;;1.90;;
53931;SDS011;39844;52.496;13.482;2023-05-10T10:45:22;1.70;;;1.60;;
53931;SDS011;39844;52.496;13.482;2023-05-10T10:47:53;1.67;;;1.58;;
53931;SDS011;39844;52.496;13.482;2023-05-10T10:50:44;1.75;;;1.65;;
53931;SDS011;39844;52.496;13.482;2023-05-10T10:53:10;1.77;;;1.67;;
53931;SDS011;39844;52.496;13.482;2023-05-10T10:55:36;1.88;;;1.70;;
53931;SDS011;39844;52.496;13.482;2023-05-10T10:58:12;2.33;;;2.17;;
53931;SDS011;39844;52.496;13.482;2023-05-10T11:01:08;1.45;;;1.35;;
53931;SDS011;39844;52.496;13.482;2023-05-10T11:03:38;1.70;;;1.60;;
53931;SDS011;39844;52.496;13.482;2023-05-10T11:06:03;2.08;;;1.98;;
53931;SDS011;39844;52.496;13.482;2023-05-10T11:08:29;2.05;;;1.90;;
53931;SDS011;39844;52.496;13.482;2023-05-10T11:15:56;2.63;;;2.42;;
53931;SDS011;39844;52.496;13.482;2023-05-10T11:18:25;9.68;;;2.08;;
53931;SDS011;39844;52.496;13.482;2023-05-10T11:21:00;1.73;;;1.52;;
53931;SDS011;39844;52.496;13.482;2023-05-10T11:23:30;1.95;;;1.85;;
53931;SDS011;39844;52.496;13.482;2023-05-10T11:25:56;2.30;;;1.67;;
53931;SDS011;39844;52.496;13.482;2023-05-10T11:28:21;1.80;;;1.70;;
53931;SDS011;39844;52.496;13.482;2023-05-10T11:30:46;1.67;;;1.58;;
53931;SDS011;39844;52.496;13.482;2023-05-10T11:33:16;2.55;;;1.85;;
53931;SDS011;39844;52.496;13.482;2023-05-10T11:35:42;2.53;;;1.30;;
53931;SDS011;39844;52.496;13.482;2023-05-10T11:38:10;2.85;;;1.88;;
53931;SDS011;39844;52.496;13.482;2023-05-10T11:40:37;8.35;;;1.85;;
53931;SDS011;39844;52.496;13.482;2023-05-10T11:43:03;2.75;;;1.70;;
53931;SDS011;39844;52.496;13.482;2023-05-10T11:45:32;2.63;;;1.50;;
53931;SDS011;39844;52.496;13.482;2023-05-10T11:47:58;5.20;;;2.30;;
53931;SDS011;39844;52.496;13.482;2023-05-10T11:50:24;3.88;;;1.80;;
53931;SDS011;39844;52.496;13.482;2023-05-10T11:52:50;1.92;;;1.77;;
53931;SDS011;39844;52.496;13.482;2023-05-10T11:55:19;1.80;;;1.70;;
53931;SDS011;39844;52.496;13.482;2023-05-10T11:57:45;2.70;;;1.83;;
53931;SDS011;39844;52.496;13.482;2023-05-10T12:00:16;5.28;;;1.58;;
53931;SDS011;39844;52.496;13.482;2023-05-10T12:02:41;1.77;;;1.67;;
53931;SDS011;39844;52.496;13.482;2023-05-10T12:05:07;1.55;;;1.45;;
53931;SDS011;39844;52.496;13.482;2023-05-10T12:07:33;4.00;;;1.63;;
53931;SDS011;39844;52.496;13.482;2023-05-10T12:10:11;4.43;;;1.90;;
53931;SDS011;39844;52.496;13.482;2023-05-10T12:12:40;1.98;;;1.70;;
53931;SDS011;39844;52.496;13.482;2023-05-10T12:15:10;1.98;;;1.67;;
53931;SDS011;39844;52.496;13.482;2023-05-10T12:17:46;3.40;;;1.45;;
53931;SDS011;39844;52.496;13.482;2023-05-10T12:20:13;1.50;;;1.40;;
53931;SDS011;39844;52.496;13.482;2023-05-10T12:22:39;1.70;;;1.60;;
53931;SDS011;39844;52.496;13.482;2023-05-10T12:25:05;1.55;;;1.45;;
53931;SDS011;39844;52.496;13.482;2023-05-10T12:27:33;3.00;;;1.60;;
53931;SDS011;39844;52.496;13.482;2023-05-10T12:29:59;5.63;;;1.70;;
53931;SDS011;39844;52.496;13.482;2023-05-10T12:32:37;1.75;;;1.60;;
53931;SDS011;39844;52.496;13.482;2023-05-10T12:35:05;1.70;;;1.58;;
53931;SDS011;39844;52.496;13.482;2023-05-10T12:37:31;1.65;;;1.55;;
53931;SDS011;39844;52.496;13.482;2023-05-10T12:39:56;2.40;;;1.50;;
53931;SDS011;39844;52.496;13.482;2023-05-10T12:42:22;1.52;;;1.48;;
53931;SDS011;39844;52.496;13.482;2023-05-10T12:44:47;2.10;;;1.90;;
53931;SDS011;39844;52.496;13.482;2023-05-10T12:47:12;5.60;;;1.70;;
53931;SDS011;39844;52.496;13.482;2023-05-10T12:49:37;1.75;;;1.40;;
53931;SDS011;39844;52.496;13.482;2023-05-10T12:52:03;1.48;;;1.38;;
53931;SDS011;39844;52.496;13.482;2023-05-10T12:54:28;1.92;;;1.60;;
53931;SDS011;39844;52.496;13.482;2023-05-10T12:56:53;1.92;;;1.55;;
53931;SDS011;39844;52.496;13.482;2023-05-10T12:59:19;1.98;;;1.80;;
53931;SDS011;39844;52.496;13.482;2023-05-10T13:01:44;1.58;;;1.48;;
53931;SDS011;39844;52.496;13.482;2023-05-10T13:04:09;2.58;;;1.70;;
53931;SDS011;39844;52.496;13.482;2023-05-10T13:06:34;2.90;;;1.40;;
53931;SDS011;39844;52.496;13.482;2023-05-10T13:09:00;1.70;;;1.60;;
53931;SDS011;39844;52.496;13.482;2023-05-10T13:11:25;1.55;;;1.45;;
53931;SDS011;39844;52.496;13.482;2023-05-10T13:13:51;1.38;;;1.38;;
53931;SDS011;39844;52.496;13.482;2023-05-10T13:16:16;1.45;;;1.35;;
53931;SDS011;39844;52.496;13.482;2023-05-10T13:18:41;1.27;;;1.25;;
53931;SDS011;39844;52.496;13.482;2023-05-10T13:21:07;2.80;;;1.40;;
53931;SDS011;39844;52.496;13.482;2023-05-10T13:23:32;1.60;;;1.58;;
53931;SDS011;39844;52.496;13.482;2023-05-10T13:25:57;2.15;;;1.40;;
53931;SDS011;39844;52.496;13.482;2023-05-10T13:28:23;1.70;;;1.60;;
53931;SDS011;39844;52.496;13.482;2023-05-10T13:30:48;3.97;;;1.75;;
53931;SDS011;39844;52.496;13.482;2023-05-10T13:33:13;1.63;;;1.52;;
53931;SDS011;39844;52.496;13.482;2023-05-10T13:35:39;1.65;;;1.55;;
53931;SDS011;39844;52.496;13.482;2023-05-10T13:38:04;3.13;;;1.70;;
53931;SDS011;39844;52.496;13.482;2023-05-10T13:40:29;1.50;;;1.50;;
53931;SDS011;39844;52.496;13.482;2023-05-10T13:42:54;3.38;;;1.50;;
53931;SDS011;39844;52.496;13.482;2023-05-10T13:45:20;1.67;;;1.58;;
53931;SDS011;39844;52.496;13.482;2023-05-10T13:47:45;5.97;;;1.80;;
53931;SDS011;39844;52.496;13.482;2023-05-10T13:50:10;1.70;;;1.60;;
53931;SDS011;39844;52.496;13.482;2023-05-10T13:52:36;1.58;;;1.48;;
53931;SDS011;39844;52.496;13.482;2023-05-10T13:55:01;1.60;;;1.50;;
53931;SDS011;39844;52.496;13.482;2023-05-10T13:57:26;1.65;;;1.55;;
53931;SDS011;39844;52.496;13.482;2023-05-10T13:59:51;1.60;;;1.50;;
53931;SDS011;39844;52.496;13.482;2023-05-10T14:02:17;1.58;;;1.52;;
53931;SDS011;39844;52.496;13.482;2023-05-10T14:04:42;1.50;;;1.40;;
53931;SDS011;39844;52.496;13.482;2023-05-10T14:07:07;1.45;;;1.45;;
53931;SDS011;39844;52.496;13.482;2023-05-10T14:09:33;1.30;;;1.30;;
53931;SDS011;39844;52.496;13.482;2023-05-10T14:11:58;1.67;;;1.50;;
53931;SDS011;39844;52.496;13.482;2023-05-10T14:14:23;2.25;;;1.70;;
53931;SDS011;39844;52.496;13.482;2023-05-10T14:16:49;1.30;;;1.30;;
53931;SDS011;39844;52.496;13.482;2023-05-10T14:19:14;3.45;;;1.50;;
53931;SDS011;39844;52.496;13.482;2023-05-10T14:21:39;1.92;;;1.40;;
53931;SDS011;39844;52.496;13.482;2023-05-10T14:24:05;1.70;;;1.60;;
53931;SDS011;39844;52.496;13.482;2023-05-10T14:26:30;1.73;;;1.63;;
53931;SDS011;39844;52.496;13.482;2023-05-10T14:28:55;2.58;;;1.70;;
53931;SDS011;39844;52.496;13.482;2023-05-10T14:31:21;2.58;;;1.40;;
53931;SDS011;39844;52.496;13.482;2023-05-10T14:33:48;4.47;;;1.40;;
53931;SDS011;39844;52.496;13.482;2023-05-10T14:36:13;1.38;;;1.38;;
53931;SDS011;39844;52.496;13.482;2023-05-10T14:38:39;1.52;;;1.50;;
53931;SDS011;39844;52.496;13.482;2023-05-10T14:41:05;2.00;;;1.70;;
53931;SDS011;39844;52.496;13.482;2023-05-10T14:43:32;2.88;;;1.40;;
53931;SDS011;39844;52.496;13.482;2023-05-10T14:45:58;1.30;;;1.30;;
53931;SDS011;39844;52.496;13.482;2023-05-10T14:48:23;2.38;;;1.60;;
53931;SDS011;39844;52.496;13.482;2023-05-10T14:50:48;1.38;;;1.25;;
53931;SDS011;39844;52.496;13.482;2023-05-10T14:53:14;3.80;;;1.42;;
53931;SDS011;39844;52.496;13.482;2023-05-10T14:55:39;1.60;;;1.50;;
53931;SDS011;39844;52.496;13.482;2023-05-10T14:58:04;1.67;;;1.60;;
53931;SDS011;39844;52.496;13.482;2023-05-10T15:00:30;1.63;;;1.52;;